createdAt,value
2023-05-05T00:00:23.937Z,15.70
2023-05-05T00:02:52.598Z,15.40
2023-05-05T00:05:21.695Z,15.00
2023-05-05T00:07:50.048Z,14.90
2023-05-05T00:10:18.482Z,14.80
2023-05-05T00:12:46.710Z,14.90
2023-05-05T00:15:14.997Z,14.90
2023-05-05T00:17:44.771Z,14.90
2023-05-05T00:20:13.794Z,14.90
2023-05-05T00:22:42.074Z,14.90
2023-05-05T00:25:11.168Z,14.90
2023-05-05T00:27:40.801Z,14.80
2023-05-05T00:30:10.742Z,14.90
2023-05-05T00:32:39.740Z,14.80
2023-05-05T00:35:10.032Z,14.90
2023-05-05T00:37:38.242Z,15.00
2023-05-05T00:40:08.219Z,15.00
2023-05-05T00:42:41.706Z,15.00
2023-05-05T00:45:11.255Z,15.00
2023-05-05T00:47:39.963Z,14.90
2023-05-05T00:50:10.966Z,14.90
2023-05-05T00:52:40.407Z,14.90
2023-05-05T00:55:10.512Z,14.90
2023-05-05T00:57:39.127Z,14.90
2023-05-05T01:00:10.068Z,14.90
2023-05-05T01:02:41.320Z,14.90
2023-05-05T01:05:11.772Z,14.90
2023-05-05T01:07:49.608Z,14.90
2023-05-05T01:10:28.005Z,14.90
2023-05-05T01:13:06.965Z,14.90
2023-05-05T01:15:37.884Z,15.00
2023-05-05T01:18:14.962Z,15.00
2023-05-05T01:20:54.792Z,15.00
2023-05-05T01:23:45.070Z,15.00
2023-05-05T01:26:25.923Z,15.00
2023-05-05T01:29:14.435Z,15.10
2023-05-05T01:31:52.110Z,15.00
2023-05-05T01:34:25.724Z,15.00
2023-05-05T01:37:06.682Z,15.00
2023-05-05T01:39:37.939Z,15.00
2023-05-05T01:42:10.118Z,15.00
2023-05-05T01:44:38.980Z,15.00
2023-05-05T01:47:11.051Z,15.00
2023-05-05T01:49:40.023Z,15.00
2023-05-05T01:52:10.114Z,14.90
2023-05-05T01:54:39.989Z,14.80
2023-05-05T01:57:10.833Z,14.90
2023-05-05T01:59:40.864Z,14.80
2023-05-05T02:02:13.043Z,14.80
2023-05-05T02:04:44.300Z,14.80
2023-05-05T02:07:14.007Z,14.80
2023-05-05T02:09:43.672Z,14.80
2023-05-05T02:12:13.259Z,14.70
2023-05-05T02:14:43.641Z,14.70
2023-05-05T02:17:14.603Z,14.70
2023-05-05T02:19:46.530Z,14.70
2023-05-05T02:22:16.548Z,14.60
2023-05-05T02:24:45.750Z,14.60
2023-05-05T02:27:18.999Z,14.60
2023-05-05T02:29:50.039Z,14.60
2023-05-05T02:32:24.018Z,14.60
2023-05-05T02:34:54.314Z,14.60
2023-05-05T02:37:28.360Z,14.60
2023-05-05T02:40:02.709Z,14.60
2023-05-05T02:42:36.497Z,14.50
2023-05-05T02:45:11.500Z,14.50
2023-05-05T02:47:41.232Z,14.40
2023-05-05T02:50:11.080Z,14.40
2023-05-05T02:52:39.588Z,14.30
2023-05-05T02:55:08.685Z,14.30
2023-05-05T02:57:40.128Z,14.10
2023-05-05T03:00:14.953Z,14.00
2023-05-05T03:02:54.649Z,14.00
2023-05-05T03:05:29.396Z,14.00
2023-05-05T03:08:04.731Z,14.00
2023-05-05T03:10:38.510Z,13.90
2023-05-05T03:13:10.896Z,13.80
2023-05-05T03:15:43.671Z,13.80
2023-05-05T03:18:15.816Z,13.80
2023-05-05T03:20:44.485Z,13.90
2023-05-05T03:23:14.616Z,14.00
2023-05-05T03:25:43.703Z,14.10
2023-05-05T03:28:12.016Z,14.10
2023-05-05T03:30:41.145Z,14.20
2023-05-05T03:33:09.926Z,14.20
2023-05-05T03:35:39.717Z,14.20
2023-05-05T03:38:07.814Z,14.20
2023-05-05T03:40:43.588Z,14.20
2023-05-05T03:43:12.860Z,14.30
2023-05-05T03:45:41.192Z,14.30
2023-05-05T03:48:10.127Z,14.30
2023-05-05T03:50:40.074Z,14.20
2023-05-05T03:53:08.206Z,14.30
2023-05-05T03:55:36.349Z,14.30
2023-05-05T03:58:05.072Z,14.10
2023-05-05T04:00:33.276Z,13.90
2023-05-05T04:03:01.558Z,13.80
2023-05-05T04:05:30.184Z,13.70
2023-05-05T04:07:59.894Z,13.70
2023-05-05T04:10:28.161Z,13.70
2023-05-05T04:12:56.880Z,13.80
2023-05-05T04:15:25.219Z,13.80
2023-05-05T04:17:53.581Z,13.90
2023-05-05T04:20:22.193Z,13.80
2023-05-05T04:22:52.745Z,13.60
2023-05-05T04:25:22.780Z,13.70
2023-05-05T04:27:51.195Z,13.80
2023-05-05T04:30:19.396Z,13.80
2023-05-05T04:32:47.794Z,13.90
2023-05-05T04:35:16.115Z,14.00
2023-05-05T04:37:44.250Z,14.00
2023-05-05T04:40:13.201Z,14.10
2023-05-05T04:42:42.998Z,14.20
2023-05-05T04:45:11.862Z,14.20
2023-05-05T04:47:40.797Z,14.10
2023-05-05T04:50:10.567Z,14.10
2023-05-05T04:52:38.863Z,14.10
2023-05-05T04:55:07.924Z,14.30
2023-05-05T04:57:36.264Z,14.30
2023-05-05T05:00:07.820Z,14.30
2023-05-05T05:02:37.796Z,14.40
2023-05-05T05:05:06.712Z,14.50
2023-05-05T05:07:34.898Z,14.50
2023-05-05T05:10:03.157Z,14.60
2023-05-05T05:12:31.407Z,14.60
2023-05-05T05:14:59.559Z,14.50
2023-05-05T05:17:30.191Z,14.50
2023-05-05T05:20:01.306Z,14.50
2023-05-05T05:22:29.576Z,14.50
2023-05-05T05:24:57.719Z,14.60
2023-05-05T05:27:26.086Z,14.70
2023-05-05T05:29:54.532Z,14.80
2023-05-05T05:32:22.747Z,15.10
2023-05-05T05:34:52.287Z,15.40
2023-05-05T05:37:21.027Z,15.60
2023-05-05T05:39:53.227Z,15.80
2023-05-05T05:42:21.429Z,15.90
2023-05-05T05:44:49.618Z,15.80
2023-05-05T05:47:18.089Z,15.70
2023-05-05T05:49:46.465Z,15.70
2023-05-05T05:52:15.986Z,15.80
2023-05-05T05:54:44.397Z,15.60
2023-05-05T05:57:12.564Z,15.60
2023-05-05T05:59:40.723Z,15.60
2023-05-05T06:02:09.815Z,15.70
2023-05-05T06:04:38.095Z,15.70
2023-05-05T06:07:06.333Z,15.90
2023-05-05T06:09:36.006Z,16.00
2023-05-05T06:12:04.326Z,16.30
2023-05-05T06:14:32.489Z,16.40
2023-05-05T06:17:00.904Z,16.60
2023-05-05T06:19:29.729Z,16.80
2023-05-05T06:21:57.919Z,16.90
2023-05-05T06:24:26.721Z,17.20
2023-05-05T06:26:56.247Z,17.40
2023-05-05T06:29:24.424Z,17.40
2023-05-05T06:31:53.190Z,17.60
2023-05-05T06:34:21.397Z,17.60
2023-05-05T06:36:49.678Z,17.70
2023-05-05T06:39:18.084Z,17.90
2023-05-05T06:41:46.282Z,18.10
2023-05-05T06:44:15.800Z,18.10
2023-05-05T06:46:44.182Z,18.10
2023-05-05T06:49:12.420Z,18.20
2023-05-05T06:51:42.767Z,18.20
2023-05-05T06:54:11.365Z,18.20
2023-05-05T06:56:39.758Z,18.20
2023-05-05T06:59:08.160Z,18.10
2023-05-05T07:01:37.889Z,18.10
2023-05-05T07:04:06.339Z,18.00
2023-05-05T07:06:34.807Z,18.20
2023-05-05T07:09:03.783Z,18.30
2023-05-05T07:11:32.108Z,18.40
2023-05-05T07:14:00.491Z,18.40
2023-05-05T07:16:29.145Z,18.40
2023-05-05T07:19:00.856Z,18.50
2023-05-05T07:21:29.500Z,18.50
2023-05-05T07:23:57.652Z,18.50
2023-05-05T07:26:26.210Z,18.50
2023-05-05T07:28:55.613Z,18.60
2023-05-05T07:31:23.872Z,18.80
2023-05-05T07:33:52.299Z,18.80
2023-05-05T07:36:22.448Z,18.90
2023-05-05T07:38:50.723Z,18.90
2023-05-05T07:41:19.341Z,18.90
2023-05-05T07:43:47.979Z,18.80
2023-05-05T07:46:16.367Z,18.90
2023-05-05T07:48:44.759Z,18.80
2023-05-05T07:51:13.206Z,18.80
2023-05-05T07:53:43.793Z,18.80
2023-05-05T07:56:12.222Z,18.90
2023-05-05T07:58:40.634Z,18.90
2023-05-05T08:01:11.105Z,18.90
2023-05-05T08:03:39.908Z,19.00
2023-05-05T08:06:10.229Z,19.00
2023-05-05T08:08:38.774Z,19.00
2023-05-05T08:11:08.418Z,19.00
2023-05-05T08:13:37.117Z,19.10
2023-05-05T08:16:05.953Z,19.00
2023-05-05T08:18:37.490Z,19.00
2023-05-05T08:21:06.548Z,18.90
2023-05-05T08:23:35.221Z,19.10
2023-05-05T08:26:03.700Z,19.10
2023-05-05T08:28:33.471Z,19.20
2023-05-05T08:31:01.916Z,19.20
2023-05-05T08:33:30.110Z,19.30
2023-05-05T08:35:58.706Z,19.20
2023-05-05T08:38:27.284Z,19.10
2023-05-05T08:40:56.095Z,19.00
2023-05-05T08:43:24.597Z,19.10
2023-05-05T08:45:56.292Z,19.10
2023-05-05T08:48:27.838Z,19.10
2023-05-05T08:51:00.784Z,19.10
2023-05-05T08:53:40.343Z,18.90
2023-05-05T08:56:09.524Z,19.10
2023-05-05T08:58:38.887Z,19.10
2023-05-05T09:01:09.312Z,19.20
2023-05-05T09:03:39.055Z,19.30
2023-05-05T09:06:07.958Z,19.20
2023-05-05T09:08:38.844Z,19.20
2023-05-05T09:11:07.431Z,19.30
2023-05-05T09:13:37.224Z,19.50
2023-05-05T09:16:05.797Z,19.60
2023-05-05T09:18:38.218Z,19.80
2023-05-05T09:21:20.778Z,20.00
2023-05-05T09:24:10.246Z,20.10
2023-05-05T09:26:40.474Z,20.00
2023-05-05T09:29:08.652Z,20.10
2023-05-05T09:31:38.368Z,20.10
2023-05-05T09:34:17.675Z,20.30
2023-05-05T09:36:47.953Z,20.30
2023-05-05T09:39:18.971Z,20.20
2023-05-05T09:41:47.966Z,20.20
2023-05-05T09:44:17.218Z,20.20
2023-05-05T09:46:53.206Z,20.20
2023-05-05T09:49:25.691Z,20.20
2023-05-05T09:51:54.796Z,20.20
2023-05-05T09:54:27.553Z,20.30
2023-05-05T09:56:56.066Z,20.20
2023-05-05T09:59:24.936Z,20.20
2023-05-05T10:01:53.918Z,20.20
2023-05-05T10:04:31.537Z,20.10
2023-05-05T10:07:00.666Z,20.00
2023-05-05T10:09:29.637Z,19.90
2023-05-05T10:12:00.776Z,19.80
2023-05-05T10:14:33.122Z,19.60
2023-05-05T10:17:02.780Z,19.50
2023-05-05T10:19:37.145Z,19.30
2023-05-05T10:22:09.342Z,19.20
2023-05-05T10:24:44.189Z,19.10
2023-05-05T10:27:18.347Z,19.10
2023-05-05T10:29:53.593Z,19.10
2023-05-05T10:32:52.962Z,19.10
2023-05-05T10:35:21.206Z,19.10
2023-05-05T10:37:50.259Z,19.10
2023-05-05T10:40:18.926Z,19.00
2023-05-05T10:42:48.558Z,18.90
2023-05-05T10:45:17.092Z,19.00
2023-05-05T10:47:45.519Z,19.00
2023-05-05T10:50:22.687Z,19.10
2023-05-05T10:52:59.667Z,19.40
2023-05-05T10:55:37.787Z,19.80
2023-05-05T10:58:06.297Z,20.10
2023-05-05T11:00:53.143Z,20.40
2023-05-05T11:03:22.986Z,20.70
2023-05-05T11:06:13.834Z,21.10
2023-05-05T11:08:43.649Z,21.50
2023-05-05T11:11:13.056Z,21.80
2023-05-05T11:13:42.603Z,22.00
2023-05-05T11:16:45.550Z,22.30
2023-05-05T11:19:48.659Z,22.80
2023-05-05T11:22:18.202Z,23.00
2023-05-05T11:24:47.277Z,22.90
2023-05-05T11:27:16.001Z,22.70
2023-05-05T11:30:06.830Z,22.60
2023-05-05T11:32:36.242Z,22.60
2023-05-05T11:35:06.229Z,22.60
2023-05-05T11:37:37.969Z,22.40
2023-05-05T11:40:14.976Z,22.10
2023-05-05T11:42:43.539Z,21.80
2023-05-05T11:45:22.383Z,21.70
2023-05-05T11:47:50.718Z,21.70
2023-05-05T11:50:23.048Z,21.70
2023-05-05T11:52:52.996Z,21.80
2023-05-05T11:55:23.163Z,21.90
2023-05-05T11:57:51.543Z,22.00
2023-05-05T12:00:20.942Z,22.10
2023-05-05T12:02:58.215Z,22.20
2023-05-05T12:05:27.123Z,22.30
2023-05-05T12:07:59.840Z,22.50
2023-05-05T12:10:29.495Z,22.70
2023-05-05T12:12:58.205Z,22.90
2023-05-05T12:15:31.405Z,22.80
2023-05-05T12:18:02.349Z,23.00
2023-05-05T12:20:32.841Z,23.10
2023-05-05T12:23:03.986Z,23.40
2023-05-05T12:25:40.146Z,23.50
2023-05-05T12:28:09.592Z,23.80
2023-05-05T12:30:38.193Z,24.30
2023-05-05T12:33:07.895Z,24.80
2023-05-05T12:35:37.049Z,25.00
2023-05-05T12:38:06.982Z,25.20
2023-05-05T12:40:48.943Z,25.30
2023-05-05T12:43:31.232Z,25.10
2023-05-05T12:46:04.155Z,25.20
2023-05-05T12:48:32.770Z,25.10
2023-05-05T12:51:18.434Z,24.90
2023-05-05T12:53:48.807Z,24.80
2023-05-05T12:56:38.989Z,24.50
2023-05-05T12:59:08.605Z,24.20
2023-05-05T13:01:37.619Z,23.80
2023-05-05T13:04:13.224Z,23.50
2023-05-05T13:06:42.615Z,23.40
2023-05-05T13:09:24.417Z,23.10
2023-05-05T13:11:52.754Z,23.00
2023-05-05T13:14:21.975Z,23.00
2023-05-05T13:16:50.474Z,23.10
2023-05-05T13:19:18.613Z,23.10
2023-05-05T13:21:46.709Z,23.30
2023-05-05T13:26:47.990Z,23.40
2023-05-05T13:29:16.535Z,23.20
2023-05-05T13:31:45.018Z,23.10
2023-05-05T13:34:13.324Z,23.00
2023-05-05T13:36:41.724Z,22.90
2023-05-05T13:39:10.153Z,22.90
2023-05-05T13:41:39.731Z,23.00
2023-05-05T13:44:08.130Z,23.10
2023-05-05T13:46:36.463Z,23.30
2023-05-05T13:49:04.985Z,23.30
2023-05-05T13:51:34.660Z,23.30
2023-05-05T13:54:03.290Z,23.30
2023-05-05T13:56:31.640Z,23.50
2023-05-05T13:59:01.307Z,23.30
2023-05-05T14:01:30.457Z,23.20
2023-05-05T14:03:59.585Z,23.10
2023-05-05T14:06:27.930Z,23.20
2023-05-05T14:08:56.361Z,22.90
2023-05-05T14:11:24.773Z,22.60
2023-05-05T14:13:52.932Z,22.30
2023-05-05T14:16:22.746Z,22.50
2023-05-05T14:18:51.013Z,22.60
2023-05-05T14:21:19.423Z,22.80
2023-05-05T14:23:47.539Z,22.80
2023-05-05T14:26:15.735Z,22.80
2023-05-05T14:28:44.525Z,22.80
2023-05-05T14:31:12.841Z,22.80
2023-05-05T14:33:42.604Z,22.70
2023-05-05T14:36:11.164Z,22.60
2023-05-05T14:38:39.560Z,22.40
2023-05-05T14:41:07.921Z,22.40
2023-05-05T14:43:37.019Z,22.30
2023-05-05T14:46:07.233Z,22.20
2023-05-05T14:48:36.444Z,22.30
2023-05-05T14:51:06.872Z,22.10
2023-05-05T14:53:35.859Z,22.00
2023-05-05T14:56:04.224Z,22.20
2023-05-05T14:58:32.670Z,22.30
2023-05-05T15:01:00.967Z,22.40
2023-05-05T15:03:29.402Z,22.70
2023-05-05T15:05:57.954Z,22.70
2023-05-05T15:08:27.773Z,22.70
2023-05-05T15:10:56.066Z,22.60
2023-05-05T15:13:24.312Z,22.40
2023-05-05T15:15:52.521Z,22.30
2023-05-05T15:18:20.891Z,22.20
2023-05-05T15:20:49.281Z,22.10
2023-05-05T15:23:17.523Z,22.20
2023-05-05T15:25:47.186Z,22.20
2023-05-05T15:28:15.428Z,22.20
2023-05-05T15:30:43.573Z,22.10
2023-05-05T15:33:12.112Z,22.10
2023-05-05T15:35:40.814Z,22.10
2023-05-05T15:38:09.206Z,22.10
2023-05-05T15:40:37.719Z,22.10
2023-05-05T15:43:07.519Z,22.10
2023-05-05T15:45:36.196Z,22.10
2023-05-05T15:48:04.852Z,22.10
2023-05-05T15:50:33.158Z,22.00
2023-05-05T15:53:01.738Z,22.20
2023-05-05T15:55:30.237Z,22.30
2023-05-05T15:57:58.426Z,22.30
2023-05-05T16:00:28.398Z,22.20
2023-05-05T16:02:56.899Z,22.20
2023-05-05T16:05:25.018Z,22.10
2023-05-05T16:07:53.832Z,22.20
2023-05-05T16:10:22.439Z,22.20
2023-05-05T16:12:52.123Z,22.20
2023-05-05T16:15:21.030Z,22.30
2023-05-05T16:17:50.752Z,22.10
2023-05-05T16:20:19.097Z,21.90
2023-05-05T16:22:47.497Z,21.80
2023-05-05T16:25:18.432Z,21.70
2023-05-05T16:27:46.726Z,21.60
2023-05-05T16:30:16.508Z,21.60
2023-05-05T16:32:44.957Z,21.40
2023-05-05T16:35:14.533Z,21.40
2023-05-05T16:37:42.899Z,21.60
2023-05-05T16:40:12.598Z,21.80
2023-05-05T16:42:42.368Z,21.90
2023-05-05T16:45:13.400Z,21.90
2023-05-05T16:47:41.638Z,21.80
2023-05-05T16:50:10.759Z,21.40
2023-05-05T16:52:40.794Z,21.20
2023-05-05T16:55:09.885Z,21.30
2023-05-05T16:57:38.149Z,21.30
2023-05-05T17:00:08.155Z,21.40
2023-05-05T17:02:36.610Z,21.30
2023-05-05T17:05:05.161Z,21.40
2023-05-05T17:07:33.949Z,21.30
2023-05-05T17:10:03.564Z,21.30
2023-05-05T17:12:31.826Z,21.30
2023-05-05T17:15:00.582Z,21.20
2023-05-05T17:17:28.827Z,21.10
2023-05-05T17:19:57.177Z,20.90
2023-05-05T17:22:25.677Z,20.70
2023-05-05T17:24:53.838Z,20.60
2023-05-05T17:27:23.427Z,20.50
2023-05-05T17:29:51.976Z,20.50
2023-05-05T17:32:20.150Z,20.50
2023-05-05T17:34:48.350Z,20.50
2023-05-05T17:37:17.106Z,20.50
2023-05-05T17:39:45.391Z,20.50
2023-05-05T17:42:13.481Z,20.40
2023-05-05T17:44:43.853Z,20.30
2023-05-05T17:47:12.783Z,20.20
2023-05-05T17:49:40.930Z,20.10
2023-05-05T17:52:09.686Z,20.00
2023-05-05T17:54:37.833Z,20.00
2023-05-05T17:57:06.014Z,20.10
2023-05-05T17:59:34.560Z,20.10
2023-05-05T18:02:04.226Z,20.00
2023-05-05T18:04:32.798Z,19.90
2023-05-05T18:07:01.352Z,19.90
2023-05-05T18:09:29.641Z,19.80
2023-05-05T18:11:58.263Z,19.70
2023-05-05T18:14:26.685Z,19.70
2023-05-05T18:16:54.913Z,19.70
2023-05-05T18:19:25.157Z,19.60
2023-05-05T18:21:55.109Z,19.70
2023-05-05T18:24:23.433Z,19.60
2023-05-05T18:26:52.776Z,19.50
2023-05-05T18:29:22.727Z,19.50
2023-05-05T18:31:54.817Z,19.40
2023-05-05T18:34:24.801Z,19.30
2023-05-05T18:36:54.347Z,19.30
2023-05-05T18:39:22.698Z,19.20
2023-05-05T18:41:51.307Z,19.20
2023-05-05T18:44:20.078Z,19.10
2023-05-05T18:46:49.462Z,19.00
2023-05-05T18:49:18.299Z,18.90
2023-05-05T18:51:48.338Z,18.90
2023-05-05T18:54:16.503Z,18.80
2023-05-05T18:56:44.926Z,18.70
2023-05-05T18:59:13.111Z,18.60
2023-05-05T19:01:44.130Z,18.60
2023-05-05T19:04:22.577Z,18.50
2023-05-05T19:06:57.174Z,18.50
2023-05-05T19:09:25.844Z,18.40
2023-05-05T19:11:54.088Z,18.30
2023-05-05T19:14:22.574Z,18.20
2023-05-05T19:16:51.310Z,18.10
2023-05-05T19:19:19.519Z,18.10
2023-05-05T19:21:47.672Z,18.00
2023-05-05T19:24:17.711Z,17.90
2023-05-05T19:26:45.884Z,17.90
2023-05-05T19:29:14.039Z,17.80
2023-05-05T19:31:42.681Z,17.70
2023-05-05T19:34:11.303Z,17.70
2023-05-05T19:36:39.790Z,17.70
2023-05-05T19:39:08.336Z,17.60
2023-05-05T19:41:37.839Z,17.60
2023-05-05T19:44:06.344Z,17.60
2023-05-05T19:46:34.853Z,17.50
2023-05-05T19:49:03.096Z,17.40
2023-05-05T19:51:31.677Z,17.40
2023-05-05T19:54:00.599Z,17.40
2023-05-05T19:56:28.876Z,17.40
2023-05-05T19:59:00.681Z,17.30
2023-05-05T20:01:33.248Z,17.30
2023-05-05T20:04:01.576Z,17.30
2023-05-05T20:06:29.785Z,17.20
2023-05-05T20:08:58.394Z,17.10
2023-05-05T20:11:26.941Z,17.10
2023-05-05T20:13:55.344Z,17.00
2023-05-05T20:16:25.708Z,16.90
2023-05-05T20:18:54.143Z,16.90
2023-05-05T20:21:22.387Z,16.80
2023-05-05T20:23:50.698Z,16.70
2023-05-05T20:26:18.925Z,16.80
2023-05-05T20:28:47.149Z,16.80
2023-05-05T20:31:16.144Z,16.80
2023-05-05T20:33:45.813Z,16.60
2023-05-05T20:36:13.975Z,16.50
2023-05-05T20:38:42.730Z,16.60
2023-05-05T20:41:11.586Z,16.60
2023-05-05T20:43:40.779Z,16.50
2023-05-05T20:46:13.098Z,16.50
2023-05-05T20:48:42.898Z,16.50
2023-05-05T20:51:13.063Z,16.50
2023-05-05T20:53:41.272Z,16.30
2023-05-05T20:56:09.821Z,16.20
2023-05-05T20:58:38.007Z,16.30
2023-05-05T21:01:06.279Z,16.20
2023-05-05T21:03:34.725Z,16.20
2023-05-05T21:06:03.288Z,16.30
2023-05-05T21:08:32.770Z,16.30
2023-05-05T21:11:01.593Z,16.20
2023-05-05T21:13:30.625Z,16.20
2023-05-05T21:15:58.918Z,16.20
2023-05-05T21:18:27.721Z,16.10
2023-05-05T21:20:56.551Z,16.00
2023-05-05T21:23:24.735Z,16.00
2023-05-05T21:25:54.562Z,15.90
2023-05-05T21:28:22.860Z,15.70
2023-05-05T21:31:10.308Z,15.60
2023-05-05T21:33:40.167Z,15.50
2023-05-05T21:36:08.551Z,15.50
2023-05-05T21:38:36.743Z,15.50
2023-05-05T21:41:06.660Z,15.50
2023-05-05T21:43:34.812Z,15.40
2023-05-05T21:46:04.306Z,15.30
2023-05-05T21:48:33.063Z,15.40
2023-05-05T21:51:01.219Z,15.40
2023-05-05T21:53:29.400Z,15.30
2023-05-05T21:55:57.989Z,15.30
2023-05-05T21:58:27.672Z,15.10
2023-05-05T22:00:55.791Z,15.00
2023-05-05T22:03:24.287Z,14.90
2023-05-05T22:05:52.582Z,14.80
2023-05-05T22:08:20.864Z,14.60
2023-05-05T22:10:49.390Z,14.50
2023-05-05T22:13:17.660Z,14.50
2023-05-05T22:15:47.704Z,14.40
2023-05-05T22:18:16.170Z,14.30
2023-05-05T22:20:44.477Z,14.30
2023-05-05T22:23:14.057Z,14.50
2023-05-05T22:25:42.368Z,14.40
2023-05-05T22:28:10.532Z,14.30
2023-05-05T22:30:38.906Z,14.40
2023-05-05T22:33:09.206Z,14.30
2023-05-05T22:35:38.253Z,14.40
2023-05-05T22:38:06.475Z,14.30
2023-05-05T22:40:35.175Z,14.20
2023-05-05T22:43:03.617Z,14.20
2023-05-05T22:45:31.781Z,14.10
2023-05-05T22:48:00.211Z,13.90
2023-05-05T22:50:30.345Z,13.90
2023-05-05T22:52:58.617Z,13.90
2023-05-05T22:55:27.416Z,14.00
2023-05-05T22:57:55.765Z,14.10
2023-05-05T23:00:24.215Z,14.10
2023-05-05T23:02:52.602Z,14.00
2023-05-05T23:05:20.814Z,14.00
2023-05-05T23:07:50.412Z,14.00
2023-05-05T23:10:19.096Z,13.90
2023-05-05T23:12:47.294Z,13.90
2023-05-05T23:15:15.703Z,13.90
2023-05-05T23:17:44.127Z,13.70
2023-05-05T23:20:13.305Z,13.70
2023-05-05T23:22:41.528Z,13.80
2023-05-05T23:25:11.926Z,13.80
2023-05-05T23:27:41.092Z,13.70
2023-05-05T23:30:10.530Z,13.80
2023-05-05T23:32:39.067Z,13.70
2023-05-05T23:35:08.478Z,13.70
2023-05-05T23:37:36.700Z,13.60
2023-05-05T23:40:07.150Z,13.70
2023-05-05T23:42:36.657Z,13.70
2023-05-05T23:45:05.165Z,13.70
2023-05-05T23:47:33.556Z,13.70
2023-05-05T23:50:01.984Z,13.70
2023-05-05T23:52:30.183Z,13.70
2023-05-05T23:54:58.428Z,13.50
2023-05-05T23:57:26.827Z,13.50
2023-05-05T23:59:56.377Z,13.40
